createdAt,value
2022-11-02T00:00:32.541Z,8.48
2022-11-02T00:03:02.779Z,8.48
2022-11-02T00:05:33.676Z,8.28
2022-11-02T00:08:02.040Z,8.30
2022-11-02T00:10:30.769Z,8.28
2022-11-02T00:12:58.808Z,8.22
2022-11-02T00:15:28.893Z,8.21
2022-11-02T00:20:30.226Z,8.40
2022-11-02T00:22:59.142Z,8.34
2022-11-02T00:25:28.097Z,8.37
2022-11-02T00:27:57.111Z,8.27
2022-11-02T00:30:27.721Z,8.19
2022-11-02T00:32:57.981Z,8.12
2022-11-02T00:35:26.024Z,8.11
2022-11-02T00:37:57.280Z,8.22
2022-11-02T00:40:27.830Z,8.15
2022-11-02T00:42:55.626Z,8.14
2022-11-02T00:45:27.034Z,8.10
2022-11-02T00:47:57.876Z,8.07
2022-11-02T00:50:25.785Z,7.95
2022-11-02T00:52:53.194Z,7.94
2022-11-02T00:55:24.820Z,8.00
2022-11-02T00:57:54.402Z,7.99
2022-11-02T01:00:23.744Z,7.92
2022-11-02T01:02:53.765Z,7.76
2022-11-02T01:05:25.055Z,7.92
2022-11-02T01:07:56.833Z,7.83
2022-11-02T01:10:27.597Z,7.85
2022-11-02T01:12:56.072Z,7.81
2022-11-02T01:15:24.291Z,7.86
2022-11-02T01:17:55.142Z,7.94
2022-11-02T01:20:24.232Z,7.92
2022-11-02T01:22:51.992Z,7.81
2022-11-02T01:25:19.634Z,7.82
2022-11-02T01:27:47.781Z,7.80
2022-11-02T01:30:24.336Z,7.78
2022-11-02T01:32:51.533Z,7.72
2022-11-02T01:35:18.997Z,7.69
2022-11-02T01:37:46.828Z,7.54
2022-11-02T01:40:15.120Z,7.67
2022-11-02T01:42:42.969Z,7.62
2022-11-02T01:45:12.323Z,7.57
2022-11-02T01:47:43.772Z,7.55
2022-11-02T01:50:15.180Z,7.60
2022-11-02T01:52:42.533Z,7.61
2022-11-02T01:55:20.279Z,7.62
2022-11-02T01:57:59.821Z,7.47
2022-11-02T02:00:29.354Z,7.47
2022-11-02T02:03:17.834Z,7.57
2022-11-02T02:05:54.391Z,7.57
2022-11-02T02:08:26.346Z,7.52
2022-11-02T02:11:01.634Z,7.45
2022-11-02T02:13:30.941Z,7.58
2022-11-02T02:16:16.607Z,7.46
2022-11-02T02:18:53.967Z,7.47
2022-11-02T02:21:50.249Z,7.43
2022-11-02T02:24:55.030Z,7.43
2022-11-02T02:27:29.240Z,7.28
2022-11-02T02:30:07.897Z,7.32
2022-11-02T02:32:41.101Z,7.29
2022-11-02T02:35:43.281Z,7.32
2022-11-02T02:38:17.450Z,7.31
2022-11-02T02:40:59.095Z,7.26
2022-11-02T02:43:39.517Z,7.36
2022-11-02T02:46:42.563Z,7.33
2022-11-02T02:49:12.990Z,7.40
2022-11-02T02:51:42.381Z,7.32
2022-11-02T02:54:18.462Z,7.26
2022-11-02T02:57:00.395Z,7.18
2022-11-02T02:59:31.722Z,7.29
2022-11-02T03:02:01.007Z,7.30
2022-11-02T03:04:29.324Z,7.35
2022-11-02T03:07:01.712Z,7.38
2022-11-02T03:09:42.358Z,7.32
2022-11-02T03:12:46.617Z,7.34
2022-11-02T03:15:29.530Z,7.37
2022-11-02T03:18:16.536Z,7.47
2022-11-02T03:21:06.566Z,7.80
2022-11-02T03:23:37.898Z,8.03
2022-11-02T03:26:14.093Z,8.19
2022-11-02T03:29:18.875Z,8.41
2022-11-02T03:32:10.233Z,8.59
2022-11-02T03:34:48.311Z,8.70
2022-11-02T03:37:31.859Z,8.91
2022-11-02T03:40:04.937Z,9.06
2022-11-02T03:42:33.515Z,9.11
2022-11-02T03:45:09.140Z,9.22
2022-11-02T03:47:37.507Z,9.21
2022-11-02T03:50:06.860Z,9.29
2022-11-02T03:52:36.387Z,9.32
2022-11-02T03:55:08.308Z,9.28
2022-11-02T03:57:45.959Z,9.34
2022-11-02T04:00:16.629Z,9.35
2022-11-02T04:02:52.124Z,9.44
2022-11-02T04:05:21.331Z,9.46
2022-11-02T04:08:10.149Z,9.60
2022-11-02T04:10:58.599Z,9.66
2022-11-02T04:13:44.057Z,9.66
2022-11-02T04:16:11.736Z,9.62
2022-11-02T04:19:00.362Z,9.76
2022-11-02T04:21:28.185Z,9.95
2022-11-02T04:24:17.683Z,9.99
2022-11-02T04:26:45.630Z,10.03
2022-11-02T04:29:15.703Z,9.98
2022-11-02T04:31:45.042Z,10.06
2022-11-02T04:34:14.748Z,10.10
2022-11-02T04:36:45.338Z,10.09
2022-11-02T04:39:15.700Z,10.11
2022-11-02T04:41:47.163Z,10.14
2022-11-02T04:44:17.875Z,10.17
2022-11-02T04:46:46.504Z,10.27
2022-11-02T04:49:15.868Z,10.24
2022-11-02T04:51:47.164Z,10.20
2022-11-02T04:54:16.700Z,10.17
2022-11-02T04:56:47.550Z,10.14
2022-11-02T04:59:15.401Z,10.13
2022-11-02T05:01:43.287Z,10.24
2022-11-02T05:04:12.294Z,10.23
2022-11-02T05:06:41.345Z,10.31
2022-11-02T05:09:11.260Z,10.32
2022-11-02T05:11:39.155Z,10.33
2022-11-02T05:14:07.347Z,10.35
2022-11-02T05:16:36.765Z,10.39
2022-11-02T05:19:06.914Z,10.34
2022-11-02T05:21:37.791Z,10.32
2022-11-02T05:24:07.025Z,10.26
2022-11-02T05:26:34.254Z,10.27
2022-11-02T05:29:03.386Z,10.27
2022-11-02T05:31:30.760Z,10.26
2022-11-02T05:34:00.707Z,10.31
2022-11-02T05:36:31.075Z,10.27
2022-11-02T05:38:58.719Z,10.32
2022-11-02T05:41:27.580Z,10.33
2022-11-02T05:43:54.551Z,10.34
2022-11-02T05:46:23.891Z,10.42
2022-11-02T05:48:52.241Z,10.43
2022-11-02T05:51:23.048Z,10.61
2022-11-02T05:53:53.435Z,10.70
2022-11-02T05:56:25.046Z,10.69
2022-11-02T05:58:55.209Z,10.75
2022-11-02T06:01:24.403Z,10.72
2022-11-02T06:03:59.107Z,10.69
2022-11-02T06:06:33.917Z,10.76
2022-11-02T06:09:06.743Z,10.77
2022-11-02T06:11:34.849Z,10.71
2022-11-02T06:14:03.899Z,10.71
2022-11-02T06:16:32.133Z,10.69
2022-11-02T06:19:01.492Z,10.65
2022-11-02T06:21:30.549Z,10.64
2022-11-02T06:24:00.134Z,10.58
2022-11-02T06:26:29.222Z,10.58
2022-11-02T06:28:58.638Z,10.53
2022-11-02T06:31:26.330Z,10.61
2022-11-02T06:33:53.760Z,10.70
2022-11-02T06:36:21.105Z,10.75
2022-11-02T06:38:52.001Z,10.75
2022-11-02T06:41:22.660Z,10.80
2022-11-02T06:43:53.793Z,10.88
2022-11-02T06:46:28.546Z,10.86
2022-11-02T06:48:57.200Z,10.94
2022-11-02T06:51:25.184Z,10.95
2022-11-02T06:53:52.834Z,10.94
2022-11-02T06:56:21.323Z,10.96
2022-11-02T06:58:51.566Z,11.04
2022-11-02T07:01:21.164Z,11.05
2022-11-02T07:03:48.906Z,11.04
2022-11-02T07:06:17.016Z,11.13
2022-11-02T07:08:49.120Z,11.14
2022-11-02T07:11:18.521Z,11.17
2022-11-02T07:13:47.434Z,11.13
2022-11-02T07:16:15.855Z,11.15
2022-11-02T07:18:51.436Z,11.22
2022-11-02T07:23:50.593Z,11.28
2022-11-02T07:26:23.505Z,11.25
2022-11-02T07:28:59.210Z,11.36
2022-11-02T07:31:27.651Z,11.46
2022-11-02T07:33:58.626Z,11.45
2022-11-02T07:36:27.025Z,11.49
2022-11-02T07:38:54.398Z,11.54
2022-11-02T07:41:25.143Z,11.59
2022-11-02T07:43:53.662Z,11.62
2022-11-02T07:46:23.528Z,11.74
2022-11-02T07:48:51.460Z,11.79
2022-11-02T07:51:20.422Z,11.93
2022-11-02T07:53:48.109Z,11.96
2022-11-02T07:56:16.679Z,12.00
2022-11-02T07:58:48.497Z,12.07
2022-11-02T08:01:17.462Z,12.15
2022-11-02T08:03:46.864Z,12.17
2022-11-02T08:06:17.391Z,12.31
2022-11-02T08:08:46.702Z,12.31
2022-11-02T08:11:18.506Z,12.46
2022-11-02T08:13:52.079Z,12.49
2022-11-02T08:16:24.027Z,12.52
2022-11-02T08:18:54.232Z,12.59
2022-11-02T08:21:22.193Z,12.69
2022-11-02T08:23:55.989Z,12.76
2022-11-02T08:26:27.719Z,12.89
2022-11-02T08:28:55.943Z,13.01
2022-11-02T08:31:41.050Z,12.99
2022-11-02T08:34:12.526Z,12.96
2022-11-02T08:36:41.971Z,12.87
2022-11-02T08:39:16.041Z,12.91
2022-11-02T08:41:58.791Z,13.05
2022-11-02T08:44:28.276Z,13.14
2022-11-02T08:46:58.177Z,13.20
2022-11-02T08:49:27.399Z,13.38
2022-11-02T08:51:56.927Z,13.33
2022-11-02T08:54:27.111Z,13.20
2022-11-02T08:56:58.307Z,13.30
2022-11-02T08:59:29.222Z,13.47
2022-11-02T09:01:57.156Z,13.55
2022-11-02T09:04:25.783Z,13.55
2022-11-02T09:06:58.455Z,13.69
2022-11-02T09:09:26.827Z,13.77
2022-11-02T09:11:58.988Z,13.76
2022-11-02T09:14:30.776Z,13.81
2022-11-02T09:17:00.133Z,13.97
2022-11-02T09:19:31.799Z,13.94
2022-11-02T09:22:02.568Z,13.99
2022-11-02T09:24:36.523Z,14.03
2022-11-02T09:27:08.082Z,13.97
2022-11-02T09:29:38.648Z,13.99
2022-11-02T09:32:11.202Z,13.96
2022-11-02T09:34:42.623Z,13.86
2022-11-02T09:37:11.946Z,13.81
2022-11-02T09:39:44.778Z,13.74
2022-11-02T09:42:30.430Z,13.85
2022-11-02T09:45:12.692Z,13.97
2022-11-02T09:48:28.117Z,13.98
2022-11-02T09:51:16.197Z,13.97
2022-11-02T09:54:29.863Z,14.06
2022-11-02T09:57:03.736Z,14.06
2022-11-02T09:59:37.685Z,14.10
2022-11-02T10:02:29.351Z,14.32
2022-11-02T10:05:39.496Z,14.43
2022-11-02T10:08:32.833Z,14.35
2022-11-02T10:14:11.393Z,14.47
2022-11-02T10:17:01.572Z,14.58
2022-11-02T10:19:30.681Z,14.46
2022-11-02T10:22:00.728Z,14.48
2022-11-02T10:24:55.837Z,14.44
2022-11-02T10:27:34.562Z,14.32
2022-11-02T10:30:21.940Z,14.49
2022-11-02T10:32:53.693Z,14.48
2022-11-02T10:39:08.325Z,14.32
2022-11-02T10:42:02.407Z,14.27
2022-11-02T10:45:29.900Z,14.23
2022-11-02T10:48:29.231Z,14.18
2022-11-02T10:51:13.584Z,14.16
2022-11-02T10:53:44.212Z,14.13
2022-11-02T10:56:19.113Z,14.16
2022-11-02T10:59:27.991Z,14.23
2022-11-02T11:02:02.624Z,14.19
2022-11-02T11:04:31.002Z,14.20
2022-11-02T11:07:06.943Z,14.10
2022-11-02T11:09:51.392Z,14.15
2022-11-02T11:12:23.998Z,14.20
2022-11-02T11:20:47.186Z,14.41
2022-11-02T11:23:26.195Z,14.41
2022-11-02T11:26:05.887Z,14.39
2022-11-02T11:28:40.389Z,14.33
2022-11-02T11:31:17.560Z,14.27
2022-11-02T11:33:55.143Z,14.37
2022-11-02T11:36:35.469Z,14.49
2022-11-02T11:39:23.026Z,14.54
2022-11-02T11:41:51.718Z,14.43
2022-11-02T11:44:20.108Z,14.42
2022-11-02T11:46:59.536Z,14.39
2022-11-02T11:49:48.457Z,14.34
2022-11-02T11:52:33.631Z,14.30
2022-11-02T11:55:34.440Z,14.28
2022-11-02T11:58:34.602Z,14.14
2022-11-02T12:01:18.567Z,14.08
2022-11-02T12:04:02.986Z,14.09
2022-11-02T12:07:02.389Z,14.23
2022-11-02T12:09:43.303Z,14.24
2022-11-02T12:12:53.899Z,14.44
2022-11-02T12:15:49.186Z,14.46
2022-11-02T12:22:45.675Z,14.35
2022-11-02T12:25:53.154Z,14.41
2022-11-02T12:28:57.692Z,14.47
2022-11-02T12:31:39.451Z,14.40
2022-11-02T12:34:42.232Z,14.33
2022-11-02T12:37:40.547Z,14.24
2022-11-02T12:40:22.044Z,14.19
2022-11-02T12:43:45.067Z,14.16
2022-11-02T12:46:41.251Z,14.24
2022-11-02T12:55:54.107Z,14.30
2022-11-02T12:58:34.792Z,14.43
2022-11-02T13:01:33.138Z,14.47
2022-11-02T13:04:26.020Z,14.58
2022-11-02T13:07:14.342Z,14.64
2022-11-02T13:10:21.484Z,14.75
2022-11-02T13:12:52.519Z,14.88
2022-11-02T13:15:23.278Z,14.94
2022-11-02T13:17:57.710Z,14.99
2022-11-02T13:20:29.886Z,15.01
2022-11-02T13:23:07.677Z,15.02
2022-11-02T13:25:40.052Z,14.96
2022-11-02T13:28:17.843Z,15.05
2022-11-02T13:30:45.368Z,15.10
2022-11-02T13:33:27.885Z,15.08
2022-11-02T13:35:57.151Z,15.07
2022-11-02T13:38:50.425Z,15.09
2022-11-02T13:42:04.180Z,15.07
2022-11-02T13:44:59.750Z,14.98
2022-11-02T13:47:54.863Z,15.02
2022-11-02T13:50:25.479Z,15.07
2022-11-02T13:53:02.838Z,15.21
2022-11-02T13:55:57.022Z,15.25
2022-11-02T13:58:44.630Z,15.24
2022-11-02T14:01:19.922Z,15.23
2022-11-02T14:04:03.946Z,15.20
2022-11-02T14:06:37.356Z,15.23
2022-11-02T14:09:09.493Z,15.12
2022-11-02T14:11:48.740Z,15.09
2022-11-02T14:14:24.228Z,15.12
2022-11-02T14:16:53.369Z,15.10
2022-11-02T14:19:52.123Z,15.05
2022-11-02T14:22:22.284Z,14.97
2022-11-02T14:24:55.532Z,14.95
2022-11-02T14:27:31.664Z,14.95
2022-11-02T14:30:00.297Z,14.97
2022-11-02T14:32:45.267Z,14.95
2022-11-02T14:35:53.674Z,14.95
2022-11-02T14:39:13.224Z,14.94
2022-11-02T14:42:07.893Z,14.95
2022-11-02T14:45:20.789Z,14.96
2022-11-02T14:47:49.375Z,14.93
2022-11-02T14:50:20.896Z,14.93
2022-11-02T14:53:24.189Z,14.89
2022-11-02T14:55:56.346Z,14.69
2022-11-02T14:58:38.795Z,14.67
2022-11-02T15:03:41.648Z,14.54
2022-11-02T15:06:11.611Z,14.36
2022-11-02T15:08:53.458Z,14.33
2022-11-02T15:11:50.801Z,14.26
2022-11-02T15:14:56.983Z,14.24
2022-11-02T15:17:45.539Z,14.20
2022-11-02T15:20:36.095Z,14.13
2022-11-02T15:23:30.947Z,14.01
2022-11-02T15:26:01.509Z,13.97
2022-11-02T15:28:31.417Z,13.88
2022-11-02T15:31:02.694Z,13.77
2022-11-02T15:33:37.921Z,13.83
2022-11-02T15:36:07.499Z,13.75
2022-11-02T15:38:39.590Z,13.59
2022-11-02T15:41:59.151Z,13.52
2022-11-02T15:45:09.236Z,13.48
2022-11-02T15:48:05.265Z,13.26
2022-11-02T15:50:54.616Z,13.15
2022-11-02T15:53:31.858Z,13.10
2022-11-02T15:56:42.966Z,12.96
2022-11-02T15:59:52.377Z,12.90
2022-11-02T16:02:28.109Z,12.89
2022-11-02T16:04:59.343Z,12.77
2022-11-02T16:07:38.063Z,12.69
2022-11-02T16:10:22.188Z,12.65
2022-11-02T16:13:23.938Z,12.57
2022-11-02T16:16:06.404Z,12.44
2022-11-02T16:18:40.328Z,12.52
2022-11-02T16:21:14.815Z,12.46
2022-11-02T16:23:51.936Z,12.30
2022-11-02T16:26:24.795Z,12.27
2022-11-02T16:28:55.802Z,12.18
2022-11-02T16:31:33.454Z,12.10
2022-11-02T16:34:22.720Z,11.99
2022-11-02T16:36:53.321Z,11.84
2022-11-02T16:39:36.851Z,11.79
2022-11-02T16:42:26.070Z,11.62
2022-11-02T16:45:00.350Z,11.53
2022-11-02T16:47:40.491Z,11.51
2022-11-02T16:50:23.557Z,11.31
2022-11-02T16:53:14.404Z,11.31
2022-11-02T16:55:45.479Z,11.14
2022-11-02T16:58:21.078Z,11.02
2022-11-02T17:01:02.609Z,11.07
2022-11-02T17:03:34.040Z,10.97
2022-11-02T17:06:05.075Z,10.94
2022-11-02T17:08:36.135Z,10.66
2022-11-02T17:11:21.181Z,10.63
2022-11-02T17:14:04.000Z,10.75
2022-11-02T17:16:34.682Z,10.76
2022-11-02T17:19:07.412Z,10.73
2022-11-02T17:21:38.186Z,10.62
2022-11-02T17:24:30.780Z,10.53
2022-11-02T17:27:17.821Z,10.42
2022-11-02T17:29:45.184Z,10.44
2022-11-02T17:32:17.163Z,10.46
2022-11-02T17:35:05.308Z,10.36
2022-11-02T17:37:40.699Z,10.11
2022-11-02T17:40:13.104Z,9.93
2022-11-02T17:42:58.634Z,9.95
2022-11-02T17:45:31.828Z,9.95
2022-11-02T17:48:02.463Z,9.95
2022-11-02T17:50:36.771Z,9.87
2022-11-02T17:53:06.992Z,9.87
2022-11-02T17:55:35.432Z,9.80
2022-11-02T17:58:06.012Z,9.73
2022-11-02T18:00:35.719Z,9.44
2022-11-02T18:03:04.426Z,9.54
2022-11-02T18:05:37.358Z,9.57
2022-11-02T18:08:06.773Z,9.54
2022-11-02T18:10:40.685Z,9.62
2022-11-02T18:13:15.082Z,9.47
2022-11-02T18:15:43.394Z,9.38
2022-11-02T18:18:10.595Z,9.25
2022-11-02T18:20:41.961Z,9.25
2022-11-02T18:23:21.785Z,9.27
2022-11-02T18:25:52.844Z,9.21
2022-11-02T18:28:23.690Z,9.17
2022-11-02T18:30:54.121Z,9.19
2022-11-02T18:33:23.106Z,9.09
2022-11-02T18:35:50.636Z,9.03
2022-11-02T18:38:20.486Z,8.90
2022-11-02T18:40:48.387Z,8.96
2022-11-02T18:43:16.545Z,8.91
2022-11-02T18:45:43.525Z,8.97
2022-11-02T18:48:11.436Z,9.06
2022-11-02T18:50:40.259Z,8.99
2022-11-02T18:53:07.277Z,8.80
2022-11-02T18:55:38.101Z,8.85
2022-11-02T18:58:08.914Z,8.90
2022-11-02T19:00:37.599Z,8.93
2022-11-02T19:03:05.118Z,8.87
2022-11-02T19:05:52.983Z,8.70
2022-11-02T19:08:40.719Z,8.71
2022-11-02T19:11:12.027Z,8.61
2022-11-02T19:13:40.687Z,8.66
2022-11-02T19:16:09.572Z,8.88
2022-11-02T19:18:40.659Z,8.87
2022-11-02T19:21:08.500Z,8.77
2022-11-02T19:23:38.218Z,8.75
2022-11-02T19:26:07.593Z,8.68
2022-11-02T19:28:38.761Z,8.62
2022-11-02T19:31:09.048Z,8.48
2022-11-02T19:33:37.044Z,8.39
2022-11-02T19:36:07.717Z,8.42
2022-11-02T19:38:39.013Z,8.53
2022-11-02T19:41:10.445Z,8.51
2022-11-02T19:43:43.152Z,8.44
2022-11-02T19:46:17.543Z,8.61
2022-11-02T19:48:44.899Z,8.43
2022-11-02T19:51:20.432Z,8.48
2022-11-02T19:53:53.558Z,8.50
2022-11-02T19:56:25.736Z,8.17
2022-11-02T19:58:56.335Z,8.14
2022-11-02T20:01:38.069Z,8.11
2022-11-02T20:04:07.073Z,8.01
2022-11-02T20:06:37.338Z,7.97
2022-11-02T20:09:07.702Z,7.99
2022-11-02T20:11:36.339Z,7.88
2022-11-02T20:14:06.158Z,7.83
2022-11-02T20:16:34.073Z,7.91
2022-11-02T20:19:04.046Z,7.80
2022-11-02T20:21:38.215Z,7.83
2022-11-02T20:24:09.242Z,7.67
2022-11-02T20:26:41.091Z,7.66
2022-11-02T20:29:13.688Z,7.73
2022-11-02T20:31:47.118Z,7.64
2022-11-02T20:34:17.873Z,7.69
2022-11-02T20:36:47.851Z,7.53
2022-11-02T20:39:21.603Z,7.59
2022-11-02T20:41:57.869Z,7.55
2022-11-02T20:44:26.340Z,7.55
2022-11-02T20:46:58.800Z,7.48
2022-11-02T20:49:49.291Z,7.53
2022-11-02T20:52:22.812Z,7.28
2022-11-02T20:54:50.887Z,7.33
2022-11-02T20:57:24.201Z,7.21
2022-11-02T20:59:51.665Z,7.15
2022-11-02T21:02:26.486Z,7.07
2022-11-02T21:04:58.427Z,7.10
2022-11-02T21:07:25.411Z,7.05
2022-11-02T21:09:55.261Z,6.90
2022-11-02T21:12:41.337Z,6.87
2022-11-02T21:15:10.463Z,6.91
2022-11-02T21:17:39.259Z,7.00
2022-11-02T21:23:00.819Z,6.89
2022-11-02T21:25:33.101Z,6.93
2022-11-02T21:28:00.909Z,6.87
2022-11-02T21:30:31.323Z,6.73
2022-11-02T21:33:09.070Z,6.81
2022-11-02T21:35:39.496Z,6.85
2022-11-02T21:38:07.936Z,6.76
2022-11-02T21:40:35.498Z,6.67
2022-11-02T21:43:04.390Z,6.38
2022-11-02T21:45:37.637Z,6.35
2022-11-02T21:48:08.883Z,6.66
2022-11-02T21:50:36.964Z,6.60
2022-11-02T21:53:05.083Z,6.47
2022-11-02T21:55:40.970Z,6.53
2022-11-02T21:58:08.999Z,6.53
2022-11-02T22:00:56.044Z,6.51
2022-11-02T22:03:25.592Z,6.46
2022-11-02T22:06:00.383Z,6.45
2022-11-02T22:08:41.760Z,6.36
2022-11-02T22:11:16.423Z,6.29
2022-11-02T22:13:44.656Z,6.24
2022-11-02T22:16:17.879Z,6.11
2022-11-02T22:18:47.817Z,6.19
2022-11-02T22:21:18.195Z,5.96
2022-11-02T22:23:49.982Z,6.05
2022-11-02T22:26:21.040Z,6.12
2022-11-02T22:28:49.609Z,6.16
2022-11-02T22:31:29.251Z,6.21
2022-11-02T22:34:01.041Z,6.32
2022-11-02T22:36:32.655Z,6.19
2022-11-02T22:39:03.312Z,6.14
2022-11-02T22:41:40.760Z,6.07
2022-11-02T22:44:12.551Z,6.01
2022-11-02T22:46:50.131Z,5.91
2022-11-02T22:49:19.935Z,5.81
2022-11-02T22:51:49.287Z,5.77
2022-11-02T22:54:19.232Z,5.90
2022-11-02T22:56:52.535Z,5.84
2022-11-02T22:59:23.342Z,5.90
2022-11-02T23:01:54.164Z,5.82
2022-11-02T23:04:21.931Z,5.72
2022-11-02T23:06:49.540Z,5.71
2022-11-02T23:09:17.865Z,5.74
2022-11-02T23:11:45.487Z,5.69
2022-11-02T23:14:17.673Z,5.69
2022-11-02T23:16:50.194Z,5.67
2022-11-02T23:19:28.629Z,5.61
2022-11-02T23:22:30.728Z,5.36
2022-11-02T23:25:16.027Z,5.37
2022-11-02T23:28:06.361Z,5.49
2022-11-02T23:30:56.117Z,5.52
2022-11-02T23:33:29.161Z,5.53
2022-11-02T23:36:11.544Z,5.28
2022-11-02T23:38:58.595Z,5.34
2022-11-02T23:41:27.341Z,5.40
2022-11-02T23:44:12.158Z,5.27
2022-11-02T23:46:42.874Z,5.25
2022-11-02T23:49:16.213Z,5.36
2022-11-02T23:52:01.923Z,5.33
2022-11-02T23:54:47.995Z,5.21
2022-11-02T23:57:15.435Z,5.19
2022-11-02T23:59:44.310Z,5.34
